Kimberly, WI (54136)

10:26 PM CDT on May 24, 2015 (GMT -0500)
N9OEQ - Darboy USA | | Change Station
CLOSE
Current Station
Personal Weather Station
Location: Appleton, WI
Elevation: 735 ft
Nearby Weather Stations

Elev 735 ft 44.25 °N, 88.35 °W | Updated 4 seconds ago

Rain
Rain
56.7 °F
Feels Like 56.7 °F
N
0.7
Wind Variable Wind from East
Gusts 1.6 mph

Today
High -- | Low -- °F
--% Chance of Precip.
Yesterday
High -- | Low -- °F
Precip. -- in
5:18 AM 8:22 PM
Waxing Crescent, 44% visible
Pressure 29.97 in
Visibility 5.0 miles
Clouds Overcast 600 ft
Dew Point 56 °F
Humidity 99%
Rainfall 0.98 in
Snow Depth Not available.
UV 0 out of 12
Pollen 7.40 out of 12
Air Quality Not available.
Flu Activity Sporadic
METAR KATW 250245Z 09007KT 5SM -RABR OVC006 13/13 A2997

More Conditions Fewer Conditions

Pressure 29.97 in
Visibility 5.0 miles
Clouds Overcast 600 ft
Dew Point 56 °F
Humidity 99%
Rainfall 0.98 in
Snow Depth Not available.
UV 0 out of 12
Pollen 7.40 out of 12
Air Quality Not available.
Flu Activity Sporadic
METAR KATW 250245Z 09007KT 5SM -RABR OVC006 13/13 A2997

More Conditions Fewer Conditions

10-Day Weather Forecast

Almanac

Astronomy

May. 24, 2015 Rise Set
Actual Time
Civil Twilight
Nautical Twilight
Astronomical Twilight
Moon
Length of Visible Light
Length of Day
Tomorrow will be .
, % of the Moon is Illuminated

Today's Extremes

State Highs State Lows

Community

WunderPhotos

Upload Photos

1,823,946 photos uploaded!

WunderBlogs® & News

Nearby

Air Quality

  Air Quality AQ Index Pollutant
Not available.

Snow Depth

Station Depth Elevation

Earthquake Activity

City Distance Mag. Time & Date
Minimum magnitude displayed is 2.5.

Coastal Water Temperatures

Place Temperature

Stations

Nearby Weather Stations

Station Location Temp. Windchill Dew Point Humidity Wind Precip. Elev Updated Type